Delta Virtual Airport Information Service

George Town Owen Roberts International Airport

ICAO: MWCR Country: Cayman Islands
Latitude: 19.2928 Longitude: -81.3577
Latest Arrival : JBU1397 (1) (KFLL-MWCR) Latest Departure : BAW252 (1A) (MWCR-MYNN)


WX CaptureLIVE
Data provided by noaa.gov | Fetched at 09:35:01

METAR : MWCR 041400Z VRB02KT 9999 FEW020 30/26 Q1014 RMK WND SPD AND DIR EST

TAF : MWCR 041100Z 0412/0512 12008KT 6000 TSRA BKN014CB BECMG 0414/0416 9999 SCT018 TEMPO 0419/0424 8000 SHRA BKN016 TEMPO 0508/0512 TSRA BKN015CB


Runway Data for MWCR
Data provided by openaviationdata.com

Runway ID Mag Var Hdg Length Elevation Surface ILS Freq ILS Id ILS Slope
8 -3 78° 7421 ft 8 ft Concrete -- -- --
26 -3 258° 7421 ft 8 ft Concrete -- -- --

George Town Owen Roberts International Airport, Cayman Islands
Use only for reference purposes



Not for navigational purposes.